Gardner, ND

4:04 AM CST on December 20, 2014 (GMT -0600)
Harwood, ND | Change Station
CLOSE
Current Station
Personal Weather Station
Location: Harwood, ND
Elevation: 879 ft
Nearby Weather Stations

Elev 879 ft 46.98 °N, 96.88 °W | Updated 3 minutes ago

Overcast
Overcast
29.3 °F
Feels Like 29 °F
N
1.0
Wind Variable Wind from SSW
Gusts 2.0 mph

Today
High -- | Low -- °F
--% Chance of Precip.
Yesterday
High -- | Low -- °F
Precip. -- in
8:10 AM 4:40 PM
Waning Crescent, 3% visible
Pressure 30.07 in
Visibility 7.0 miles
Clouds Overcast 700 ft
Windchill 29 °F
Dew Point 27 °F
Humidity 89%
Rainfall 0.00 in
Snow Depth Not available.
UV 0 out of 12
Pollen .10 out of 12
Air Quality Not available.
Flu Activity Not available.
METAR KFAR 200953Z 19008KT 7SM OVC007 M01/M02 A3003 RMK AO2 SLP181 T10061022

More Conditions Fewer Conditions

Pressure 30.07 in
Visibility 7.0 miles
Clouds Overcast 700 ft
Windchill 29 °F
Dew Point 27 °F
Humidity 89%
Rainfall 0.00 in
Snow Depth Not available.
UV 0 out of 12
Pollen .10 out of 12
Air Quality Not available.
Flu Activity Not available.
METAR KFAR 200953Z 19008KT 7SM OVC007 M01/M02 A3003 RMK AO2 SLP181 T10061022

More Conditions Fewer Conditions

10-Day Weather Forecast

Almanac

Astronomy

Dec. 20, 2014 Rise Set
Actual Time
Civil Twilight
Nautical Twilight
Astronomical Twilight
Moon
Length of Visible Light
Length of Day
Tomorrow will be .
, % of the Moon is Illuminated

Today's Extremes

State Highs State Lows

Community

WunderPhotos

Upload Photos

1,779,150 photos uploaded!

WunderBlogs® & News

Nearby

Air Quality

  Air Quality AQ Index Pollutant
Not available.

Snow Depth

Station Depth Elevation

Earthquake Activity

City Distance Mag. Time & Date
Minimum magnitude displayed is 2.5.

Coastal Water Temperatures

Place Temperature

Nearby Weather Stations